TimeAWST,TemperatureF,Dew PointF,Humidity,Sea Level PressureIn,VisibilityMPH,Wind Direction,Wind SpeedMPH,Gust SpeedMPH,PrecipitationIn,Events,Conditions,WindDirDegrees,DateUTC
12:00 AM,74,37,16,29.88,,ESE,10.4,,,,,120,2012-12-31 16:00:00
12:00 AM,73.4,37.4,27,29.89,-9999.0,ESE,10.4,-,N/A,,Unknown,120,2012-12-31 16:00:00
1:00 AM,71.6,37.4,29,29.89,-9999.0,SE,11.5,-,N/A,,Unknown,130,2012-12-31 17:00:00
2:00 AM,68,36,19,29.88,,SE,5.8,,,,,130,2012-12-31 18:00:00
2:00 AM,68.0,35.6,30,29.89,-9999.0,SE,5.8,-,N/A,,Unknown,130,2012-12-31 18:00:00
3:00 AM,67,35,20,29.89,,SE,6.9,,,,,140,2012-12-31 19:00:00
3:00 AM,66.2,35.6,32,29.89,-9999.0,SE,6.9,-,N/A,,Unknown,140,2012-12-31 19:00:00
4:00 AM,64.4,35.6,34,29.89,-9999.0,ESE,6.9,-,N/A,,Unknown,120,2012-12-31 20:00:00
5:00 AM,66,34,20,29.91,,ESE,6.9,,,,,120,2012-12-31 21:00:00
5:00 AM,66.2,33.8,30,29.92,-9999.0,ESE,6.9,-,N/A,,Unknown,120,2012-12-31 21:00:00
6:00 AM,75.2,33.8,22,29.92,-9999.0,East,6.9,-,N/A,,Unknown,90,2012-12-31 22:00:00
6:42 AM,84.2,28.4,13,29.95,-9999.0,NNE,11.5,-,N/A,,Unknown,30,2012-12-31 22:42:00
7:00 AM,87.8,24.8,10,29.95,-9999.0,NNE,16.1,-,N/A,,Unknown,30,2012-12-31 23:00:00
7:42 AM,96.8,19.4,6,29.92,-9999.0,NNE,18.4,-,N/A,,Unknown,30,2012-12-31 23:42:00
8:00 AM,98,20,4,29.91,,NNE,19.6,,,,,30,2013-01-01 00:00:00
8:00 AM,98.6,19.4,6,29.92,-9999.0,NNE,19.6,-,N/A,,Unknown,30,2013-01-01 00:00:00
9:00 AM,102,14,4,29.90,,NNE,17.3,,,,,20,2013-01-01 01:00:00
9:00 AM,102.2,14.0,4,29.92,-9999.0,NNE,17.3,-,N/A,,Unknown,20,2013-01-01 01:00:00
10:00 AM,105.8,8.6,4,29.89,-9999.0,North,16.1,-,N/A,,Unknown,10,2013-01-01 02:00:00
11:00 AM,107,2,4,29.88,,North,13.8,,,,,0,2013-01-01 03:00:00
11:00 AM,107.6,1.4,4,29.89,-9999.0,North,13.8,-,N/A,,Unknown,360,2013-01-01 03:00:00
12:00 PM,107,1,4,29.85,,NE,9.2,,,,,50,2013-01-01 04:00:00
12:00 PM,107.6,1.4,4,29.86,-9999.0,NE,9.2,-,N/A,,Unknown,50,2013-01-01 04:00:00
1:00 PM,109.4,3.2,4,29.86,-9999.0,NE,6.9,-,N/A,,Unknown,50,2013-01-01 05:00:00
2:00 PM,109,2,4,29.81,,East,10.4,,,,,80,2013-01-01 06:00:00
2:00 PM,109.4,3.2,4,29.83,-9999.0,East,10.4,-,N/A,,Unknown,80,2013-01-01 06:00:00
3:00 PM,109,2,4,29.80,,NE,9.2,,,,,50,2013-01-01 07:00:00
3:00 PM,109.4,3.2,4,29.80,-9999.0,NE,9.2,-,N/A,,Unknown,50,2013-01-01 07:00:00
4:00 PM,107.6,-13.0,4,29.80,-9999.0,ENE,11.5,-,N/A,,Unknown,70,2013-01-01 08:00:00
5:00 PM,108,-12,4,29.78,,NE,12.7,,,,,50,2013-01-01 09:00:00
5:00 PM,107.6,-13.0,4,29.80,-9999.0,NE,12.7,-,N/A,,Unknown,50,2013-01-01 09:00:00
5:37 PM,104.0,15.8,4,29.80,-9999.0,SSE,18.4,39.1,N/A,,Unknown,150,2013-01-01 09:37:00
5:39 PM,104.0,14.0,4,29.80,-9999.0,ESE,25.3,39.1,N/A,,Unknown,110,2013-01-01 09:39:00
6:00 PM,101,18,4,29.81,,ESE,27.6,,,,,120,2013-01-01 10:00:00
6:00 PM,100.4,17.6,5,29.83,-9999.0,ESE,27.6,-,N/A,,Unknown,120,2013-01-01 10:00:00
7:00 PM,95.0,21.2,7,29.86,-9999.0,ESE,20.7,-,N/A,,Unknown,110,2013-01-01 11:00:00
8:00 PM,90,24,4,29.86,,East,18.4,,,,,100,2013-01-01 12:00:00
8:00 PM,89.6,23.0,9,29.86,-9999.0,East,18.4,-,N/A,,Unknown,100,2013-01-01 12:00:00
9:00 PM,86,28,6,29.87,,East,17.3,,,,,100,2013-01-01 13:00:00
9:00 PM,86.0,28.4,12,29.89,-9999.0,East,17.3,-,N/A,,Unknown,100,2013-01-01 13:00:00
10:00 PM,84.2,26.6,12,29.89,-9999.0,East,16.1,-,N/A,,Unknown,80,2013-01-01 14:00:00
11:00 PM,81,27,7,29.88,,East,13.8,,,,,80,2013-01-01 15:00:00
11:00 PM,80.6,26.6,14,29.89,-9999.0,East,13.8,-,N/A,,Unknown,80,2013-01-01 15:00:00